createdAt,value
2023-04-22T00:01:09.031Z,5.40
2023-04-22T00:03:18.381Z,5.35
2023-04-22T00:05:23.675Z,5.70
2023-04-22T00:09:33.458Z,6.75
2023-04-22T00:11:38.328Z,6.93
2023-04-22T00:13:43.313Z,6.57
2023-04-22T00:15:48.242Z,6.10
2023-04-22T00:17:53.196Z,6.00
2023-04-22T00:20:01.707Z,7.07
2023-04-22T00:22:07.001Z,5.95
2023-04-22T00:26:16.529Z,5.32
2023-04-22T00:30:26.469Z,5.07
2023-04-22T00:32:31.449Z,5.47
2023-04-22T00:34:36.422Z,4.93
2023-04-22T00:36:43.951Z,5.28
2023-04-22T00:38:52.473Z,6.18
2023-04-22T00:40:57.376Z,6.22
2023-04-22T00:43:02.964Z,5.70
2023-04-22T00:45:13.025Z,6.07
2023-04-22T00:47:18.847Z,5.32
2023-04-22T00:49:24.041Z,5.80
2023-04-22T00:53:36.360Z,6.65
2023-04-22T00:55:41.581Z,5.55
2023-04-22T00:59:51.535Z,5.63
2023-04-22T01:01:57.138Z,4.90
2023-04-22T01:04:02.162Z,4.82
2023-04-22T01:08:11.966Z,5.40
2023-04-22T01:10:20.465Z,4.90
2023-04-22T01:12:25.344Z,4.95
2023-04-22T01:14:30.534Z,5.03
2023-04-22T01:16:39.192Z,5.18
2023-04-22T01:18:44.168Z,4.13
2023-04-22T01:20:49.208Z,4.90
2023-04-22T01:22:58.118Z,4.70
2023-04-22T01:25:07.087Z,5.03
2023-04-22T01:27:12.642Z,4.70
2023-04-22T01:29:18.461Z,4.90
2023-04-22T01:31:23.538Z,5.20
2023-04-22T01:33:28.575Z,6.25
2023-04-22T01:35:37.279Z,6.35
2023-04-22T01:37:42.897Z,6.72
2023-04-22T01:39:48.649Z,5.70
2023-04-22T01:41:56.843Z,5.65
2023-04-22T01:44:06.127Z,4.25
2023-04-22T01:46:12.959Z,4.38
2023-04-22T01:48:18.124Z,4.53
2023-04-22T01:50:24.327Z,4.82
2023-04-22T01:52:30.186Z,4.18
2023-04-22T01:54:35.352Z,4.93
2023-04-22T01:58:49.701Z,4.57
2023-04-22T02:00:54.612Z,5.07
2023-04-22T02:02:59.831Z,5.40
2023-04-22T02:05:05.027Z,5.55
2023-04-22T02:11:21.618Z,5.15
2023-04-22T02:13:26.571Z,5.57
2023-04-22T02:15:34.163Z,5.15
2023-04-22T02:17:39.478Z,5.47
2023-04-22T02:19:44.449Z,4.30
2023-04-22T02:21:49.388Z,5.10
2023-04-22T02:23:54.361Z,4.18
2023-04-22T02:25:59.275Z,4.72
2023-04-22T02:28:04.230Z,4.45
2023-04-22T02:30:11.425Z,4.95
2023-04-22T02:32:19.715Z,5.18
2023-04-22T02:34:24.634Z,4.72
2023-04-22T02:36:32.126Z,4.95
2023-04-22T02:38:38.819Z,4.93
2023-04-22T02:40:48.623Z,5.32
2023-04-22T02:42:54.456Z,4.95
2023-04-22T02:45:00.239Z,5.07
2023-04-22T02:47:05.471Z,5.38
2023-04-22T02:49:14.521Z,4.57
2023-04-22T02:51:19.495Z,4.80
2023-04-22T02:53:24.367Z,4.88
2023-04-22T02:55:29.460Z,5.57
2023-04-22T02:57:34.374Z,5.30
2023-04-22T03:01:46.417Z,5.35
2023-04-22T03:04:02.987Z,6.22
2023-04-22T03:06:10.860Z,5.40
2023-04-22T03:08:15.821Z,5.22
2023-04-22T03:12:25.909Z,5.85
2023-04-22T03:14:30.913Z,5.70
2023-04-22T03:16:36.370Z,6.15
2023-04-22T03:18:43.606Z,5.38
2023-04-22T03:20:49.249Z,5.78
2023-04-22T03:22:58.523Z,6.07
2023-04-22T03:25:04.585Z,6.00
2023-04-22T03:27:11.317Z,5.47
2023-04-22T03:29:17.695Z,5.95
2023-04-22T03:31:24.615Z,6.28
2023-04-22T03:33:29.722Z,5.47
2023-04-22T03:35:41.439Z,5.32
2023-04-22T03:37:46.442Z,5.80
2023-04-22T03:39:58.974Z,5.45
2023-04-22T03:42:06.124Z,5.75
2023-04-22T03:44:12.661Z,6.03
2023-04-22T03:48:35.900Z,5.82
2023-04-22T03:50:46.226Z,5.00
2023-04-22T03:52:51.552Z,5.30
2023-04-22T03:55:01.675Z,5.32
2023-04-22T03:57:07.368Z,6.15
2023-04-22T04:01:17.375Z,5.55
2023-04-22T04:03:30.452Z,6.63
2023-04-22T04:05:36.960Z,5.50
2023-04-22T04:07:42.785Z,6.57
2023-04-22T04:09:47.989Z,6.38
2023-04-22T04:11:56.892Z,6.28
2023-04-22T04:14:03.638Z,6.97
2023-04-22T04:16:24.399Z,8.32
2023-04-22T04:18:35.786Z,6.15
2023-04-22T04:20:40.889Z,5.93
2023-04-22T04:22:46.626Z,5.80
2023-04-22T04:24:52.646Z,5.47
2023-04-22T04:27:03.334Z,5.70
2023-04-22T04:29:15.372Z,6.00
2023-04-22T04:31:28.008Z,5.53
2023-04-22T04:33:37.156Z,5.50
2023-04-22T04:35:43.573Z,5.35
2023-04-22T04:37:51.609Z,5.50
2023-04-22T04:39:59.518Z,5.47
2023-04-22T04:42:17.950Z,5.30
2023-04-22T04:46:43.124Z,5.40
2023-04-22T04:48:50.907Z,5.65
2023-04-22T04:50:59.173Z,5.07
2023-04-22T04:53:07.358Z,5.00
2023-04-22T04:55:16.717Z,5.65
2023-04-22T04:57:24.891Z,5.68
2023-04-22T04:59:30.110Z,4.82
2023-04-22T05:01:36.469Z,4.82
2023-04-22T05:03:46.308Z,5.28
2023-04-22T05:05:53.610Z,4.55
2023-04-22T05:07:58.735Z,4.45
2023-04-22T05:10:04.529Z,5.05
2023-04-22T05:12:11.248Z,5.15
2023-04-22T05:14:18.782Z,5.70
2023-04-22T05:16:25.192Z,5.22
2023-04-22T05:18:30.841Z,4.78
2023-04-22T05:20:41.541Z,5.07
2023-04-22T05:22:46.482Z,4.95
2023-04-22T05:24:52.812Z,5.00
2023-04-22T05:26:58.827Z,5.25
2023-04-22T05:31:11.187Z,5.38
2023-04-22T05:33:16.299Z,5.00
2023-04-22T05:35:22.019Z,5.57
2023-04-22T05:37:26.947Z,4.82
2023-04-22T05:39:31.918Z,4.90
2023-04-22T05:41:43.736Z,4.70
2023-04-22T05:43:50.360Z,5.00
2023-04-22T05:45:57.797Z,4.72
2023-04-22T05:48:05.454Z,5.63
2023-04-22T05:50:15.913Z,5.07
2023-04-22T05:52:28.085Z,4.72
2023-04-22T05:54:44.718Z,4.28
2023-04-22T05:56:51.232Z,4.72
2023-04-22T05:58:56.150Z,4.80
2023-04-22T06:01:02.592Z,5.18
2023-04-22T06:03:28.887Z,4.05
2023-04-22T06:05:34.767Z,4.00
2023-04-22T06:09:45.038Z,4.60
2023-04-22T06:11:50.063Z,4.75
2023-04-22T06:13:54.975Z,4.35
2023-04-22T06:16:00.073Z,4.43
2023-04-22T06:18:05.256Z,4.65
2023-04-22T06:22:18.673Z,4.18
2023-04-22T06:24:25.477Z,3.60
2023-04-22T06:26:32.881Z,4.07
2023-04-22T06:28:38.103Z,3.65
2023-04-22T06:30:48.566Z,3.85
2023-04-22T06:32:55.370Z,3.67
2023-04-22T06:35:00.291Z,3.75
2023-04-22T06:37:07.875Z,3.55
2023-04-22T06:39:14.100Z,3.40
2023-04-22T06:41:44.457Z,3.33
2023-04-22T06:44:18.001Z,3.60
2023-04-22T06:46:48.892Z,3.55
2023-04-22T06:49:12.204Z,3.63
2023-04-22T06:51:35.552Z,4.30
2023-04-22T06:53:43.266Z,3.75
2023-04-22T06:55:53.736Z,3.13
2023-04-22T06:57:59.144Z,3.88
2023-04-22T07:00:04.769Z,3.30
2023-04-22T07:02:11.345Z,3.28
2023-04-22T07:04:17.757Z,2.92
2023-04-22T07:08:27.646Z,3.78
2023-04-22T07:10:35.392Z,3.80
2023-04-22T07:12:58.854Z,3.95
2023-04-22T07:15:03.737Z,3.30
2023-04-22T07:17:08.700Z,3.35
2023-04-22T07:19:15.498Z,2.80
2023-04-22T07:21:20.847Z,3.15
2023-04-22T07:23:25.822Z,3.55
2023-04-22T07:25:30.845Z,3.65
2023-04-22T07:27:39.076Z,3.50
2023-04-22T07:29:44.025Z,3.30
2023-04-22T07:31:48.998Z,3.00
2023-04-22T07:33:53.871Z,3.50
2023-04-22T07:35:58.779Z,3.17
2023-04-22T07:38:03.969Z,2.70
2023-04-22T07:42:17.076Z,2.90
2023-04-22T07:44:24.657Z,2.72
2023-04-22T07:46:29.600Z,2.92
2023-04-22T07:48:34.553Z,2.80
2023-04-22T07:50:39.416Z,3.40
2023-04-22T07:52:44.318Z,2.97
2023-04-22T07:54:49.265Z,3.72
2023-04-22T07:56:54.167Z,3.15
2023-04-22T07:58:59.060Z,2.88
2023-04-22T08:01:09.026Z,2.95
2023-04-22T08:03:14.461Z,3.13
2023-04-22T08:05:19.952Z,3.00
2023-04-22T08:09:32.824Z,2.83
2023-04-22T08:11:37.742Z,2.92
2023-04-22T08:13:45.119Z,2.60
2023-04-22T08:15:50.329Z,3.20
2023-04-22T08:17:57.864Z,2.80
2023-04-22T08:20:02.784Z,2.85
2023-04-22T08:22:07.868Z,2.95
2023-04-22T08:26:17.804Z,3.33
2023-04-22T08:30:27.741Z,2.88
2023-04-22T08:32:32.710Z,3.10
2023-04-22T08:34:40.826Z,2.75
2023-04-22T08:36:46.700Z,3.08
2023-04-22T08:40:59.787Z,2.55
2023-04-22T08:43:05.128Z,2.53
2023-04-22T08:45:10.919Z,2.72
2023-04-22T08:47:17.194Z,3.00
2023-04-22T08:49:22.505Z,3.17
2023-04-22T08:51:32.144Z,2.78
2023-04-22T08:53:37.303Z,2.72
2023-04-22T08:57:48.923Z,2.85
2023-04-22T08:59:55.722Z,2.53
2023-04-22T09:02:05.663Z,3.05
2023-04-22T09:04:13.605Z,4.05
2023-04-22T09:06:20.403Z,2.95
2023-04-22T09:08:29.226Z,2.60
2023-04-22T09:10:34.804Z,3.53
2023-04-22T09:12:41.704Z,2.72
2023-04-22T09:14:47.394Z,2.80
2023-04-22T09:16:53.056Z,2.63
2023-04-22T09:18:58.338Z,3.25
2023-04-22T09:21:03.450Z,2.97
2023-04-22T09:25:21.768Z,3.10
2023-04-22T09:27:28.229Z,2.80
2023-04-22T09:29:33.788Z,2.80
2023-04-22T09:31:39.221Z,2.45
2023-04-22T09:33:44.686Z,2.53
2023-04-22T09:35:49.532Z,2.67
2023-04-22T09:37:55.146Z,2.28
2023-04-22T09:40:00.038Z,2.58
2023-04-22T09:42:07.724Z,2.25
2023-04-22T09:44:16.970Z,2.58
2023-04-22T09:46:21.954Z,2.53
2023-04-22T09:50:42.917Z,2.30
2023-04-22T09:52:47.836Z,2.30
2023-04-22T09:54:53.745Z,2.58
2023-04-22T09:56:58.958Z,2.35
2023-04-22T09:59:09.154Z,2.00
2023-04-22T10:01:14.293Z,2.60
2023-04-22T10:05:27.185Z,2.17
2023-04-22T10:07:32.752Z,2.13
2023-04-22T10:09:38.181Z,2.40
2023-04-22T10:11:43.610Z,1.92
2023-04-22T10:13:48.517Z,2.28
2023-04-22T10:15:58.410Z,2.40
2023-04-22T10:18:05.096Z,1.90
2023-04-22T10:20:16.541Z,1.85
2023-04-22T10:22:21.723Z,2.17
2023-04-22T10:24:30.036Z,2.10
2023-04-22T10:26:45.572Z,2.47
2023-04-22T10:30:57.829Z,2.05
2023-04-22T10:33:47.316Z,2.00
2023-04-22T10:36:13.568Z,2.00
2023-04-22T10:38:19.288Z,1.90
2023-04-22T10:40:25.770Z,2.00
2023-04-22T10:42:31.870Z,1.90
2023-04-22T10:44:52.410Z,1.80
2023-04-22T10:47:03.792Z,1.45
2023-04-22T10:49:13.366Z,1.77
2023-04-22T10:51:43.780Z,1.60
2023-04-22T10:53:48.712Z,1.60
2023-04-22T10:55:56.469Z,1.35
2023-04-22T10:58:02.610Z,1.50
2023-04-22T11:00:35.386Z,1.70
2023-04-22T11:02:50.779Z,1.50
2023-04-22T11:05:23.948Z,1.33
2023-04-22T11:07:35.833Z,1.35
2023-04-22T11:09:42.913Z,1.40
2023-04-22T11:11:48.219Z,1.33
2023-04-22T11:13:53.412Z,1.38
2023-04-22T11:15:58.753Z,1.25
2023-04-22T11:18:07.523Z,1.60
2023-04-22T11:20:13.666Z,1.50
2023-04-22T11:22:21.334Z,1.52
2023-04-22T11:24:26.604Z,1.65
2023-04-22T11:26:38.489Z,1.48
2023-04-22T11:28:49.363Z,1.30
2023-04-22T11:30:54.714Z,1.10
2023-04-22T11:33:01.648Z,1.42
2023-04-22T11:35:11.415Z,1.20
2023-04-22T11:37:16.377Z,1.23
2023-04-22T11:39:22.821Z,1.58
2023-04-22T11:41:27.898Z,1.42
2023-04-22T11:43:32.898Z,1.73
2023-04-22T11:45:39.325Z,1.65
2023-04-22T11:47:46.259Z,1.45
2023-04-22T11:50:02.174Z,1.40
2023-04-22T11:52:09.806Z,1.50
2023-04-22T11:54:14.768Z,1.27
2023-04-22T11:56:19.635Z,1.23
2023-04-22T11:58:29.568Z,1.13
2023-04-22T12:00:37.298Z,1.45
2023-04-22T12:02:44.438Z,1.40
2023-04-22T12:04:49.501Z,1.25
2023-04-22T12:09:02.721Z,1.40
2023-04-22T12:11:10.815Z,1.52
2023-04-22T12:13:22.690Z,1.40
2023-04-22T12:15:27.808Z,1.52
2023-04-22T12:17:34.763Z,1.73
2023-04-22T12:19:41.276Z,1.40
2023-04-22T12:21:46.496Z,1.63
2023-04-22T12:23:53.065Z,1.75
2023-04-22T12:26:00.636Z,1.70
2023-04-22T12:28:05.547Z,1.70
2023-04-22T12:32:16.421Z,1.65
2023-04-22T12:34:24.107Z,1.40
2023-04-22T12:36:29.234Z,1.50
2023-04-22T12:38:34.206Z,1.60
2023-04-22T12:42:46.781Z,1.42
2023-04-22T12:44:51.701Z,1.23
2023-04-22T12:49:01.766Z,1.85
2023-04-22T12:51:07.169Z,1.70
2023-04-22T12:53:12.238Z,1.60
2023-04-22T12:55:18.170Z,1.80
2023-04-22T12:57:23.097Z,1.65
2023-04-22T13:01:37.387Z,1.65
2023-04-22T13:05:49.129Z,1.65
2023-04-22T13:08:05.682Z,1.63
2023-04-22T13:10:13.788Z,1.73
2023-04-22T13:12:18.680Z,1.70
2023-04-22T13:16:31.063Z,1.80
2023-04-22T13:18:36.623Z,1.30
2023-04-22T13:20:43.000Z,1.30
2023-04-22T13:22:48.578Z,1.60
2023-04-22T13:24:53.574Z,1.90
2023-04-22T13:29:04.002Z,2.00
2023-04-22T13:33:16.957Z,1.70
2023-04-22T13:35:22.260Z,1.50
2023-04-22T13:37:27.153Z,1.50
2023-04-22T13:39:32.336Z,1.88
2023-04-22T13:41:37.296Z,1.40
2023-04-22T13:45:48.491Z,1.80
2023-04-22T13:47:53.565Z,2.17
2023-04-22T13:50:02.145Z,1.55
2023-04-22T13:52:07.165Z,1.77
2023-04-22T13:56:16.777Z,1.30
2023-04-22T14:00:26.419Z,1.48
2023-04-22T14:04:36.342Z,1.83
2023-04-22T14:06:44.003Z,1.30
2023-04-22T14:08:49.132Z,1.50
2023-04-22T14:10:54.070Z,2.40
2023-04-22T14:15:03.689Z,1.60
2023-04-22T14:17:08.868Z,2.22
2023-04-22T14:19:14.719Z,1.80
2023-04-22T14:21:19.640Z,1.60
2023-04-22T14:25:31.938Z,3.17
2023-04-22T14:29:44.405Z,2.15
2023-04-22T14:31:50.003Z,2.30
2023-04-22T14:33:54.900Z,2.20
2023-04-22T14:38:05.222Z,1.88
2023-04-22T14:40:14.016Z,1.50
2023-04-22T14:42:19.739Z,1.73
2023-04-22T14:44:24.813Z,1.60
2023-04-22T14:46:30.162Z,1.40
2023-04-22T14:48:35.759Z,2.08
2023-04-22T14:50:40.708Z,1.33
2023-04-22T14:52:48.091Z,1.10
2023-04-22T14:54:53.135Z,1.33
2023-04-22T14:57:00.604Z,1.40
2023-04-22T14:59:05.615Z,1.20
2023-04-22T15:03:15.705Z,1.77
2023-04-22T15:05:22.415Z,1.35
2023-04-22T15:07:27.329Z,1.40
2023-04-22T15:11:36.903Z,1.25
2023-04-22T15:15:49.149Z,1.30
2023-04-22T15:17:54.324Z,1.15
2023-04-22T15:19:59.406Z,1.30
2023-04-22T15:22:04.340Z,1.58
2023-04-22T15:24:09.566Z,1.38
2023-04-22T15:26:15.362Z,1.77
2023-04-22T15:28:20.377Z,1.88
2023-04-22T15:30:28.124Z,1.60
2023-04-22T15:32:36.355Z,1.85
2023-04-22T15:34:43.627Z,1.60
2023-04-22T15:36:48.593Z,1.48
2023-04-22T15:41:01.221Z,1.90
2023-04-22T15:43:06.293Z,2.50
2023-04-22T15:47:19.289Z,2.33
2023-04-22T15:49:24.419Z,2.47
2023-04-22T15:53:34.395Z,2.50
2023-04-22T15:55:42.331Z,1.80
2023-04-22T15:57:47.230Z,2.00
2023-04-22T16:02:23.706Z,2.28
2023-04-22T16:04:29.007Z,2.10
2023-04-22T16:06:34.193Z,2.35
2023-04-22T16:08:39.464Z,2.30
2023-04-22T16:10:46.692Z,2.05
2023-04-22T16:12:52.138Z,1.60
2023-04-22T16:14:57.138Z,2.13
2023-04-22T16:17:02.910Z,1.65
2023-04-22T16:19:11.199Z,1.75
2023-04-22T16:21:16.148Z,1.45
2023-04-22T16:25:25.849Z,1.90
2023-04-22T16:27:31.078Z,1.50
2023-04-22T16:29:36.022Z,2.05
2023-04-22T16:31:42.053Z,1.60
2023-04-22T16:33:47.075Z,1.55
2023-04-22T16:37:59.149Z,2.10
2023-04-22T16:40:04.692Z,1.63
2023-04-22T16:42:09.860Z,1.88
2023-04-22T16:44:14.775Z,1.98
2023-04-22T16:48:24.434Z,1.70
2023-04-22T16:50:29.370Z,1.70
2023-04-22T16:54:42.943Z,1.65
2023-04-22T16:56:47.816Z,1.70
2023-04-22T17:00:57.395Z,1.60
2023-04-22T17:03:02.489Z,1.63
2023-04-22T17:05:08.856Z,1.70
2023-04-22T17:07:13.748Z,1.88
2023-04-22T17:09:21.345Z,1.48
2023-04-22T17:11:26.822Z,2.40
2023-04-22T17:13:31.752Z,2.50
2023-04-22T17:15:36.695Z,2.30
2023-04-22T17:17:42.890Z,2.85
2023-04-22T17:19:47.804Z,2.95
2023-04-22T17:21:52.752Z,2.47
2023-04-22T17:23:58.828Z,2.28
2023-04-22T17:26:06.421Z,1.80
2023-04-22T17:28:11.738Z,1.50
2023-04-22T17:30:17.299Z,1.90
2023-04-22T17:32:22.178Z,2.30
2023-04-22T17:34:27.121Z,2.55
2023-04-22T17:36:32.090Z,3.03
2023-04-22T17:38:36.987Z,2.85
2023-04-22T17:40:43.860Z,2.15
2023-04-22T17:42:51.632Z,1.83
2023-04-22T17:44:56.525Z,2.47
2023-04-22T17:47:01.635Z,1.73
2023-04-22T17:49:06.731Z,3.25
2023-04-22T17:53:16.919Z,1.70
2023-04-22T17:55:22.125Z,1.50
2023-04-22T17:57:28.487Z,1.50
2023-04-22T17:59:35.982Z,1.67
2023-04-22T18:01:44.088Z,1.52
2023-04-22T18:03:49.215Z,1.60
2023-04-22T18:05:54.229Z,1.70
2023-04-22T18:08:02.651Z,2.03
2023-04-22T18:10:09.213Z,2.42
2023-04-22T18:12:17.240Z,2.00
2023-04-22T18:16:30.478Z,2.65
2023-04-22T18:18:35.598Z,3.40
2023-04-22T18:20:40.859Z,3.05
2023-04-22T18:22:45.962Z,3.28
2023-04-22T18:24:51.041Z,3.70
2023-04-22T18:26:56.659Z,2.90
2023-04-22T18:29:01.571Z,2.85
2023-04-22T18:31:07.000Z,2.15
2023-04-22T18:33:14.521Z,2.25
2023-04-22T18:35:20.264Z,3.40
2023-04-22T18:37:29.740Z,3.47
2023-04-22T18:39:34.743Z,3.80
2023-04-22T18:41:40.520Z,3.80
2023-04-22T18:43:47.318Z,3.10
2023-04-22T18:45:52.321Z,2.95
2023-04-22T18:47:59.056Z,2.50
2023-04-22T18:50:07.201Z,3.20
2023-04-22T18:52:12.128Z,3.22
2023-04-22T18:54:17.064Z,3.08
2023-04-22T18:56:21.995Z,3.00
2023-04-22T18:58:27.402Z,3.25
2023-04-22T19:00:32.378Z,3.70
2023-04-22T19:02:39.921Z,3.67
2023-04-22T19:04:46.637Z,3.38
2023-04-22T19:08:58.828Z,3.47
2023-04-22T19:13:15.816Z,3.55
2023-04-22T19:15:27.670Z,4.45
2023-04-22T19:17:33.798Z,3.70
2023-04-22T19:19:38.915Z,3.80
2023-04-22T19:21:45.388Z,3.85
2023-04-22T19:23:53.366Z,3.63
2023-04-22T19:25:58.253Z,4.18
2023-04-22T19:28:05.722Z,3.05
2023-04-22T19:30:12.104Z,3.53
2023-04-22T19:32:17.173Z,3.00
2023-04-22T19:36:27.152Z,2.03
2023-04-22T19:38:32.109Z,1.90
2023-04-22T19:40:39.785Z,1.88
2023-04-22T19:42:47.494Z,1.80
2023-04-22T19:44:52.615Z,1.70
2023-04-22T19:49:03.036Z,1.90
2023-04-22T19:51:11.320Z,2.45
2023-04-22T19:53:17.109Z,3.20
2023-04-22T19:55:23.566Z,3.63
2023-04-22T19:57:31.618Z,3.17
2023-04-22T19:59:37.116Z,2.35
2023-04-22T20:01:42.747Z,2.13
2023-04-22T20:03:48.656Z,3.53
2023-04-22T20:05:54.373Z,3.03
2023-04-22T20:08:02.031Z,2.75
2023-04-22T20:10:10.010Z,2.25
2023-04-22T20:12:16.019Z,2.50
2023-04-22T20:14:24.515Z,2.70
2023-04-22T20:16:32.665Z,2.90
2023-04-22T20:18:38.038Z,2.40
2023-04-22T20:20:45.071Z,2.40
2023-04-22T20:22:51.566Z,2.30
2023-04-22T20:25:07.820Z,2.50
2023-04-22T20:27:12.980Z,2.60
2023-04-22T20:31:25.685Z,2.83
2023-04-22T20:33:30.892Z,2.85
2023-04-22T20:37:42.646Z,3.33
2023-04-22T20:39:49.093Z,3.33
2023-04-22T20:41:57.623Z,2.95
2023-04-22T20:44:02.683Z,2.90
2023-04-22T20:46:08.137Z,2.88
2023-04-22T20:48:15.840Z,3.25
2023-04-22T20:50:21.004Z,2.80
2023-04-22T20:54:30.546Z,3.05
2023-04-22T20:56:35.493Z,2.72
2023-04-22T20:58:40.657Z,3.03
2023-04-22T21:02:50.962Z,4.13
2023-04-22T21:04:59.916Z,3.78
2023-04-22T21:07:07.404Z,3.30
2023-04-22T21:09:12.404Z,3.28
2023-04-22T21:11:17.942Z,3.28
2023-04-22T21:13:23.327Z,3.50
2023-04-22T21:15:29.802Z,3.33
2023-04-22T21:17:35.308Z,3.30
2023-04-22T21:19:41.636Z,3.15
2023-04-22T21:21:50.174Z,3.03
2023-04-22T21:23:56.893Z,3.10
2023-04-22T21:26:04.005Z,3.20
2023-04-22T21:28:09.752Z,3.55
2023-04-22T21:30:16.491Z,4.13
2023-04-22T21:32:21.887Z,6.50
2023-04-22T21:34:26.920Z,8.40
2023-04-22T21:36:32.073Z,8.95
2023-04-22T21:38:39.728Z,6.30
2023-04-22T21:40:47.696Z,5.63
2023-04-22T21:42:52.786Z,5.22
2023-04-22T21:47:02.312Z,4.15
2023-04-22T21:49:08.301Z,3.10
2023-04-22T21:51:13.277Z,2.90
2023-04-22T21:53:19.675Z,3.00
2023-04-22T21:55:27.309Z,2.88
2023-04-22T21:57:32.472Z,3.65
2023-04-22T22:01:42.462Z,2.90
2023-04-22T22:03:48.280Z,3.05
2023-04-22T22:05:53.405Z,2.70
2023-04-22T22:07:58.325Z,2.90
2023-04-22T22:10:03.690Z,2.75
2023-04-22T22:12:12.327Z,2.78
2023-04-22T22:14:17.652Z,2.95
2023-04-22T22:16:23.387Z,3.10
2023-04-22T22:18:28.410Z,3.33
2023-04-22T22:20:33.357Z,2.95
2023-04-22T22:22:38.383Z,2.90
2023-04-22T22:24:43.595Z,2.83
2023-04-22T22:26:48.948Z,3.05
2023-04-22T22:31:02.671Z,2.70
2023-04-22T22:33:09.348Z,2.40
2023-04-22T22:35:14.448Z,2.83
2023-04-22T22:37:19.454Z,2.47
2023-04-22T22:39:24.418Z,2.45
2023-04-22T22:41:29.302Z,2.22
2023-04-22T22:43:34.184Z,2.10
2023-04-22T22:45:44.063Z,2.70
2023-04-22T22:47:49.089Z,2.97
2023-04-22T22:49:54.071Z,2.63
2023-04-22T22:51:58.952Z,2.55
2023-04-22T22:54:04.071Z,1.83
2023-04-22T22:58:14.483Z,2.60
2023-04-22T23:00:19.959Z,2.67
2023-04-22T23:02:27.612Z,2.85
2023-04-22T23:04:33.318Z,2.47
2023-04-22T23:06:38.276Z,2.40
2023-04-22T23:08:43.195Z,2.03
2023-04-22T23:10:48.163Z,2.92
2023-04-22T23:12:53.076Z,2.42
2023-04-22T23:14:57.999Z,2.05
2023-04-22T23:17:03.075Z,2.05
2023-04-22T23:21:16.263Z,2.15
2023-04-22T23:23:22.094Z,2.08
2023-04-22T23:25:27.652Z,2.35
2023-04-22T23:27:33.342Z,2.15
2023-04-22T23:29:39.530Z,2.75
2023-04-22T23:31:45.036Z,2.60
2023-04-22T23:33:52.499Z,2.60
2023-04-22T23:36:02.640Z,3.03
2023-04-22T23:38:10.743Z,2.83
2023-04-22T23:40:16.392Z,2.47
2023-04-22T23:42:21.300Z,2.88
2023-04-22T23:44:26.250Z,2.67
2023-04-22T23:46:31.346Z,2.22
2023-04-22T23:50:41.673Z,3.10
2023-04-22T23:52:49.183Z,3.05
2023-04-22T23:54:55.330Z,2.95
2023-04-22T23:57:01.344Z,3.45
2023-04-22T23:59:07.537Z,3.30
